Weather Data

Pearl Creek Farm: 8878 N Farm Road 75, Walnut Grove MO 65770

<== Previous Day (Sunday 20 Jan 2008) | Next Day (Tuesday 22 Jan 2008) ==>

Summary Precipitation Data For Monday 21 January 2008

ElementValueUnits
PrecipitationT
Notes(none)
SourceSpringfield-Branson National Airport (SGF)

Summary Temperature Data For Monday 21 January 2008

ElementValueUnits
High Temperature35 oF
Low Temperature20 oF
Average Temperature28 oF
High Humidity92 %
Low Humidity34 %
Average Humidity57 %
SourceSpringfield-Branson National Airport (SGF)

Detail Temperature Data For Monday 21 January 2008

Date / TimeTemp (F)RH (%)Dew Pt (F)Report Date / TimeSource
2008-01-21 12:52:00 33 42 12.0 2017-12-29 19:14:24.89625 Springfield-Branson National Airport (SGF)
2008-01-21 16:52:00 34 38 11.0 2017-12-29 19:14:24.89625 Springfield-Branson National Airport (SGF)
2008-01-21 19:52:00 31 64 20.0 2017-12-29 19:14:24.89625 Springfield-Branson National Airport (SGF)
2008-01-21 21:52:00 31 72 23.0 2017-12-29 19:14:24.89625 Springfield-Branson National Airport (SGF)
2008-01-21 22:52:00 32 92 30.0 2017-12-29 19:14:24.89625 Springfield-Branson National Airport (SGF)
2008-01-21 23:52:00 32 92 30.0 2017-12-29 19:14:24.89625 Springfield-Branson National Airport (SGF)
2008-01-21 07:52:00 21 62 10.0 2017-12-29 19:14:24.89625 Springfield-Branson National Airport (SGF)
2008-01-21 08:52:00 23 57 10.0 2017-12-29 19:14:24.89625 Springfield-Branson National Airport (SGF)
2008-01-21 09:52:00 25 55 11.0 2017-12-29 19:14:24.89625 Springfield-Branson National Airport (SGF)
2008-01-21 10:52:00 28 51 12.0 2017-12-29 19:14:24.89625 Springfield-Branson National Airport (SGF)
2008-01-21 11:52:00 32 43 12.0 2017-12-29 19:14:24.89625 Springfield-Branson National Airport (SGF)
2008-01-21 13:52:00 34 38 11.0 2017-12-29 19:14:24.89625 Springfield-Branson National Airport (SGF)
2008-01-21 14:52:00 35 37 11.0 2017-12-29 19:14:24.89625 Springfield-Branson National Airport (SGF)
2008-01-21 15:52:00 35 34 9.0 2017-12-29 19:14:24.89625 Springfield-Branson National Airport (SGF)
2008-01-21 17:52:00 34 34 8.0 2017-12-29 19:14:24.89625 Springfield-Branson National Airport (SGF)
2008-01-21 18:52:00 34 38 11.0 2017-12-29 19:14:24.89625 Springfield-Branson National Airport (SGF)
2008-01-21 20:52:00 31 67 21.0 2017-12-29 19:14:24.89625 Springfield-Branson National Airport (SGF)
2008-01-21 00:52:00 20 65 10.0 2017-12-29 19:14:24.89625 Springfield-Branson National Airport (SGF)
2008-01-21 01:52:00 20 65 10.0 2017-12-29 19:14:24.89625 Springfield-Branson National Airport (SGF)
2008-01-21 02:52:00 20 65 10.0 2017-12-29 19:14:24.89625 Springfield-Branson National Airport (SGF)
2008-01-21 03:52:00 20 65 10.0 2017-12-29 19:14:24.89625 Springfield-Branson National Airport (SGF)
2008-01-21 04:52:00 20 65 10.0 2017-12-29 19:14:24.89625 Springfield-Branson National Airport (SGF)
2008-01-21 05:52:00 20 65 10.0 2017-12-29 19:14:24.89625 Springfield-Branson National Airport (SGF)
2008-01-21 06:52:00 20 65 10.0 2017-12-29 19:14:24.89625 Springfield-Branson National Airport (SGF)

A total of 24 rows are displayed.